• Join FlightAware (Why Join?)
  • Login
  • US Flag 
02:26AM EDT


 

Airport Tracker/Info


-or-


 

Live Flight TrackerFlight Track Log ✈ CTL17 ✈ 19-Jun-2013 ✈ KMBS - KYIP

Flight Track Log - Related Links

Times and Time Zones

All times are in EDT time to prevent confusion due to time zone crossing. See the CTL17 flight status page for this flight to view local times or setup timezone preferences in your user account.

Time Position Orientation Groundspeed Altitude Reporting Facility
EDT Latitude Longitude Course Direction KTS MPH feet Rate Location/Type
04:52PM 43.3619 -84.0057 160° South  Level Estimated
04:53PM 43.3366 -83.9838 148° Southeast  Level FlightAware Approximate
04:54PM 43.3080 -83.9718 160° South  Level Estimated
04:55PM 43.2807 -83.9553 156° South  Level FlightAware Approximate
04:56PM 43.2533 -83.9388 156° South  Level FlightAware Approximate
04:57PM 43.2247 -83.9271 163° South  Level Estimated
04:58PM 43.1965 -83.9134 161° South  Level FlightAware Approximate
04:59PM 43.1683 -83.8997 161° South  Level FlightAware Approximate
05:00PM 43.1401 -83.8861 161° South  Level FlightAware Approximate
05:00PM 42.9592 -83.8003 160° South 164 189 5,000  Level Cleveland Center
05:01PM 43.1115 -83.8746 160° South  Level Estimated
05:01PM 42.9203 -83.7786 158° South 167 192 4,900  Level Cleveland Center
05:02PM 43.0835 -83.8603 160° South  Level FlightAware Approximate
05:02PM 42.8772 -83.7536 157° South 165 190 5,000  Level Cleveland Center
05:03PM 43.0555 -83.8461 160° South  Level FlightAware Approximate
05:03PM 42.8339 -83.7372 164° South 164 189 5,000  Level Cleveland Center
05:04PM 43.0275 -83.8318 160° South  Level FlightAware Approximate
05:04PM 42.7886 -83.7181 163° South 166 191 5,000  Level Cleveland Center
05:05PM 42.9995 -83.8176 160° South  Level FlightAware Approximate
05:05PM 42.7369 -83.6956 162° South 169 194 4,900  Level Cleveland Center
05:06PM 42.6936 -83.6794 165° South 171 197 4,900  Level Cleveland Center
05:07PM 42.6525 -83.6633 164° South 166 191 5,000  Climbing Cleveland Center
05:08PM 42.6092 -83.6442 162° South 163 188 5,000 -480 Level Cleveland Center
05:09PM 42.5597 -83.6247 164° South 176 203 4,100 -540 Descending Cleveland Center
05:10PM 42.5142 -83.6086 165° South 171 197 4,000 -60 Descending Cleveland Center
05:11PM 42.4689 -83.5922 165° South 158 182 4,000 -180 Level Cleveland Center
05:12PM 42.4236 -83.5678 158° South 176 203 3,700 -360 Descending Cleveland Center
05:13PM 42.3761 -83.5486 163° South 177 204 3,300 -720 Descending Cleveland Center
05:14PM 42.3264 -83.5378 171° South 181 208 2,300 -780 Descending Cleveland Center
05:15PM 42.2828 -83.5244 167° South 158 182 1,800 -600 Descending Cleveland Center
05:17PM 42.2352 -83.5176 160° South  Level FlightAware Approximate
05:24PM 42.2333 -83.5167 160° South  Level FlightAware Approximate
05:25PM 42.2393 -83.5310 160° South  Level Estimated